Terminal Aerodrome Forecast
Issued by NWS

Home | Current Version | Previous Version | Text Only | Print | Product List | Glossary On
Versions: 1 2 3 4 5 6 7 8 9 10 11 12 13 14 15 16
000
FTUS45 KSLC 300520
TAFBCE
TAF
KBCE 300520Z 3006/3106 29008KT P6SM SCT100 BKN150
     FM301800 28012G20KT P6SM VCSH SCT070 BKN120
     FM310300 30007KT P6SM SCT080 BKN120=

USA.gov is the U.S. government's official web portal to all federal, state and local government web resources and services.